createdAt,value
2017-11-01T00:00:54.016Z,8.70
2017-11-01T00:03:21.669Z,8.70
2017-11-01T00:05:49.228Z,8.70
2017-11-01T00:08:16.785Z,8.60
2017-11-01T00:10:44.307Z,8.60
2017-11-01T00:13:11.816Z,8.60
2017-11-01T00:15:39.748Z,8.70
2017-11-01T00:18:07.265Z,8.70
2017-11-01T00:20:35.217Z,8.70
2017-11-01T00:23:02.738Z,8.70
2017-11-01T00:25:30.243Z,8.70
2017-11-01T00:27:57.781Z,8.70
2017-11-01T00:30:25.305Z,8.70
2017-11-01T00:32:52.865Z,8.70
2017-11-01T00:35:20.397Z,8.70
2017-11-01T00:37:47.915Z,8.70
2017-11-01T00:40:15.450Z,8.70
2017-11-01T00:42:42.967Z,8.70
2017-11-01T00:45:10.505Z,8.70
2017-11-01T00:47:38.020Z,8.70
2017-11-01T00:50:06.019Z,8.70
2017-11-01T00:52:33.550Z,8.80
2017-11-01T00:55:01.099Z,8.70
2017-11-01T00:57:28.636Z,8.70
2017-11-01T00:59:56.162Z,8.70
2017-11-01T01:02:23.699Z,8.60
2017-11-01T01:04:51.223Z,8.60
2017-11-01T01:07:18.773Z,8.60
2017-11-01T01:09:46.292Z,8.60
2017-11-01T01:12:13.812Z,8.60
2017-11-01T01:14:41.345Z,8.60
2017-11-01T01:17:08.883Z,8.60
2017-11-01T01:19:36.420Z,8.60
2017-11-01T01:22:03.946Z,8.50
2017-11-01T01:24:31.880Z,8.50
2017-11-01T01:26:59.401Z,8.50
2017-11-01T01:29:26.922Z,8.50
2017-11-01T01:31:54.470Z,8.50
2017-11-01T01:34:21.984Z,8.50
2017-11-01T01:36:49.917Z,8.50
2017-11-01T01:39:17.433Z,8.50
2017-11-01T01:41:44.988Z,8.40
2017-11-01T01:44:12.500Z,8.40
2017-11-01T01:46:40.417Z,8.40
2017-11-01T01:49:07.949Z,8.40
2017-11-01T01:51:35.866Z,8.40
2017-11-01T01:54:03.406Z,8.40
2017-11-01T01:56:31.320Z,8.40
2017-11-01T01:58:58.859Z,8.50
2017-11-01T02:01:26.382Z,8.50
2017-11-01T02:03:53.921Z,8.50
2017-11-01T02:06:21.447Z,8.40
2017-11-01T02:08:48.970Z,8.50
2017-11-01T02:11:16.513Z,8.50
2017-11-01T02:13:44.431Z,8.40
2017-11-01T02:16:11.981Z,8.50
2017-11-01T02:18:39.508Z,8.50
2017-11-01T02:21:07.031Z,8.50
2017-11-01T02:23:34.570Z,8.50
2017-11-01T02:26:02.476Z,8.50
2017-11-01T02:28:30.011Z,8.50
2017-11-01T02:30:57.935Z,8.50
2017-11-01T02:33:25.473Z,8.50
2017-11-01T02:35:53.385Z,8.50
2017-11-01T02:38:20.912Z,8.50
2017-11-01T02:40:48.460Z,8.50
2017-11-01T02:43:15.980Z,8.50
2017-11-01T02:45:43.527Z,8.50
2017-11-01T02:48:11.455Z,8.50
2017-11-01T02:50:38.984Z,8.50
2017-11-01T02:53:06.897Z,8.50
2017-11-01T02:55:34.423Z,8.60
2017-11-01T02:58:01.972Z,8.50
2017-11-01T03:00:29.502Z,8.50
2017-11-01T03:02:57.055Z,8.60
2017-11-01T03:05:24.578Z,8.50
2017-11-01T03:07:52.125Z,8.60
2017-11-01T03:10:19.651Z,8.60
2017-11-01T03:12:47.178Z,8.60
2017-11-01T03:15:14.727Z,8.60
2017-11-01T03:17:42.251Z,8.60
2017-11-01T03:20:09.786Z,8.60
2017-11-01T03:22:37.305Z,8.60
2017-11-01T03:25:04.849Z,8.60
2017-11-01T03:27:32.365Z,8.60
2017-11-01T03:29:59.884Z,8.60
2017-11-01T03:32:27.426Z,8.60
2017-11-01T03:34:54.942Z,8.60
2017-11-01T03:37:22.488Z,8.60
2017-11-01T03:39:50.012Z,8.60
2017-11-01T03:42:17.552Z,8.70
2017-11-01T03:44:45.070Z,8.60
2017-11-01T03:47:12.989Z,8.70
2017-11-01T03:49:40.539Z,8.70
2017-11-01T03:52:08.058Z,8.70
2017-11-01T03:54:35.596Z,8.70
2017-11-01T03:57:03.112Z,8.70
2017-11-01T03:59:30.653Z,8.70
2017-11-01T04:01:58.166Z,8.80
2017-11-01T04:04:26.081Z,8.80
2017-11-01T04:06:53.618Z,8.80
2017-11-01T04:09:21.141Z,8.80
2017-11-01T04:11:48.674Z,8.80
2017-11-01T04:14:16.176Z,8.80
2017-11-01T04:16:45.499Z,8.80
2017-11-01T04:19:18.720Z,8.70
2017-11-01T04:21:46.278Z,8.70
2017-11-01T04:24:13.793Z,8.70
2017-11-01T04:26:41.712Z,8.70
2017-11-01T04:29:09.254Z,8.70
2017-11-01T04:31:36.781Z,8.70
2017-11-01T04:34:04.331Z,8.70
2017-11-01T04:36:31.855Z,8.80
2017-11-01T04:38:59.796Z,8.70
2017-11-01T04:41:27.306Z,8.80
2017-11-01T04:43:55.216Z,8.80
2017-11-01T04:46:22.747Z,8.80
2017-11-01T04:48:51.225Z,8.80
2017-11-01T04:51:18.761Z,8.80
2017-11-01T04:53:46.285Z,8.80
2017-11-01T04:56:17.658Z,8.80
2017-11-01T04:58:45.574Z,8.80
2017-11-01T05:01:13.113Z,8.80
2017-11-01T05:03:41.034Z,8.80
2017-11-01T05:06:10.430Z,8.80
2017-11-01T05:08:41.940Z,8.80
2017-11-01T05:11:09.483Z,8.90
2017-11-01T05:13:44.692Z,8.80
2017-11-01T05:16:15.349Z,8.90
2017-11-01T05:18:43.704Z,8.90
2017-11-01T05:21:11.282Z,8.90
2017-11-01T05:23:53.424Z,8.90
2017-11-01T05:26:20.978Z,8.90
2017-11-01T05:28:48.505Z,8.90
2017-11-01T05:31:18.961Z,8.90
2017-11-01T05:33:46.506Z,8.90
2017-11-01T05:36:14.029Z,8.90
2017-11-01T05:38:41.974Z,8.90
2017-11-01T05:41:09.505Z,9.00
2017-11-01T05:43:37.215Z,9.00
2017-11-01T05:46:04.738Z,9.00
2017-11-01T05:48:32.660Z,9.00
2017-11-01T05:51:00.214Z,9.00
2017-11-01T05:53:27.748Z,9.00
2017-11-01T05:55:57.120Z,9.00
2017-11-01T05:58:24.636Z,9.00
2017-11-01T06:00:52.196Z,9.00
2017-11-01T06:03:19.722Z,9.00
2017-11-01T06:05:47.259Z,9.00
2017-11-01T06:08:16.098Z,9.00
2017-11-01T06:10:43.626Z,9.00
2017-11-01T06:13:11.175Z,9.00
2017-11-01T06:15:38.701Z,9.00
2017-11-01T06:18:06.263Z,9.00
2017-11-01T06:20:33.794Z,9.00
2017-11-01T06:23:01.321Z,9.00
2017-11-01T06:25:28.860Z,9.00
2017-11-01T06:27:56.384Z,9.00
2017-11-01T06:30:23.920Z,9.00
2017-11-01T06:32:51.446Z,9.00
2017-11-01T06:35:19.010Z,9.00
2017-11-01T06:37:46.539Z,9.00
2017-11-01T06:40:14.061Z,9.10
2017-11-01T06:42:41.596Z,9.10
2017-11-01T06:45:09.124Z,9.10
2017-11-01T06:47:37.058Z,9.10
2017-11-01T06:50:04.585Z,9.10
2017-11-01T06:52:33.602Z,9.10
2017-11-01T06:55:01.124Z,9.10
2017-11-01T06:57:28.651Z,9.10
2017-11-01T06:59:56.192Z,9.10
2017-11-01T07:02:24.109Z,9.10
2017-11-01T07:04:54.558Z,9.10
2017-11-01T07:07:22.090Z,9.10
2017-11-01T07:09:50.045Z,9.10
2017-11-01T07:12:17.575Z,9.10
2017-11-01T07:14:45.104Z,9.10
2017-11-01T07:17:12.654Z,9.20
2017-11-01T07:19:40.177Z,9.20
2017-11-01T07:22:07.724Z,9.20
2017-11-01T07:24:35.640Z,9.20
2017-11-01T07:27:03.189Z,9.20
2017-11-01T07:29:31.106Z,9.20
2017-11-01T07:31:58.662Z,9.20
2017-11-01T07:34:26.194Z,9.20
2017-11-01T07:36:54.376Z,9.30
2017-11-01T07:39:22.326Z,9.30
2017-11-01T07:41:49.854Z,9.30
2017-11-01T07:44:17.404Z,9.30
2017-11-01T07:46:45.324Z,9.30
2017-11-01T07:49:12.874Z,9.30
2017-11-01T07:51:40.793Z,9.30
2017-11-01T07:54:08.345Z,9.30
2017-11-01T07:56:35.877Z,9.30
2017-11-01T07:59:03.398Z,9.30
2017-11-01T08:01:31.026Z,9.30
2017-11-01T08:03:58.954Z,9.40
2017-11-01T08:06:26.507Z,9.40
2017-11-01T08:08:54.038Z,9.40
2017-11-01T08:11:21.582Z,9.40
2017-11-01T08:13:49.117Z,9.50
2017-11-01T08:16:16.681Z,9.50
2017-11-01T08:18:44.215Z,9.50
2017-11-01T08:21:11.733Z,9.50
2017-11-01T08:23:39.267Z,9.50
2017-11-01T08:26:06.821Z,9.50
2017-11-01T08:28:34.377Z,9.50
2017-11-01T08:31:01.901Z,9.50
2017-11-01T08:33:29.837Z,9.50
2017-11-01T08:35:57.363Z,9.50
2017-11-01T08:38:24.921Z,9.50
2017-11-01T08:40:52.855Z,9.50
2017-11-01T08:43:20.372Z,9.50
2017-11-01T08:45:48.313Z,9.60
2017-11-01T08:48:16.001Z,9.60
2017-11-01T08:50:44.387Z,9.50
2017-11-01T08:53:11.914Z,9.50
2017-11-01T08:55:39.565Z,9.60
2017-11-01T08:58:07.500Z,9.60
2017-11-01T09:00:35.066Z,9.60
2017-11-01T09:03:02.581Z,9.70
2017-11-01T09:05:30.516Z,9.70
2017-11-01T09:07:58.055Z,9.70
2017-11-01T09:10:25.589Z,9.70
2017-11-01T09:12:53.138Z,9.70
2017-11-01T09:15:20.666Z,9.80
2017-11-01T09:17:48.216Z,9.80
2017-11-01T09:20:15.759Z,9.80
2017-11-01T09:22:43.325Z,9.80
2017-11-01T09:25:10.853Z,9.80
2017-11-01T09:27:38.627Z,9.80
2017-11-01T09:30:06.167Z,9.80
2017-11-01T09:32:33.760Z,9.80
2017-11-01T09:35:01.701Z,9.80
2017-11-01T09:37:29.225Z,9.80
2017-11-01T09:39:56.777Z,9.90
2017-11-01T09:42:24.704Z,9.90
2017-11-01T09:44:52.276Z,9.90
2017-11-01T09:47:19.804Z,9.90
2017-11-01T09:49:47.732Z,10.00
2017-11-01T09:52:15.282Z,10.00
2017-11-01T09:54:42.819Z,10.00
2017-11-01T09:57:10.770Z,10.10
2017-11-01T09:59:38.314Z,10.10
2017-11-01T10:02:05.876Z,10.10
2017-11-01T10:04:33.412Z,10.20
2017-11-01T10:07:00.982Z,10.20
2017-11-01T10:09:28.515Z,10.30
2017-11-01T10:11:56.056Z,10.30
2017-11-01T10:14:23.606Z,10.30
2017-11-01T10:16:51.533Z,10.50
2017-11-01T10:19:19.089Z,10.50
2017-11-01T10:21:46.659Z,10.60
2017-11-01T10:24:14.222Z,10.60
2017-11-01T10:26:41.749Z,10.60
2017-11-01T10:29:09.281Z,10.50
2017-11-01T10:31:36.832Z,10.60
2017-11-01T10:34:04.404Z,10.60
2017-11-01T10:36:31.991Z,10.80
2017-11-01T10:38:59.525Z,10.90
2017-11-01T10:41:27.057Z,11.00
2017-11-01T10:43:54.616Z,11.10
2017-11-01T10:46:22.137Z,11.20
2017-11-01T10:48:50.088Z,11.30
2017-11-01T10:51:17.611Z,11.30
2017-11-01T10:53:45.161Z,11.40
2017-11-01T10:56:12.692Z,11.40
2017-11-01T10:58:40.229Z,11.50
2017-11-01T11:01:07.803Z,11.60
2017-11-01T11:03:35.356Z,11.70
2017-11-01T11:06:03.317Z,11.80
2017-11-01T11:08:30.852Z,11.80
2017-11-01T11:10:58.422Z,12.00
2017-11-01T11:13:25.986Z,12.00
2017-11-01T11:15:53.522Z,12.00
2017-11-01T11:18:21.077Z,12.00
2017-11-01T11:20:48.622Z,12.00
2017-11-01T11:23:16.181Z,12.20
2017-11-01T11:25:43.732Z,12.40
2017-11-01T11:28:11.310Z,12.50
2017-11-01T11:30:38.859Z,12.50
2017-11-01T11:33:06.791Z,12.60
2017-11-01T11:35:34.336Z,12.60
2017-11-01T11:38:01.880Z,12.70
2017-11-01T11:40:29.825Z,13.00
2017-11-01T11:42:57.351Z,13.00
2017-11-01T11:45:24.902Z,13.10
2017-11-01T11:47:52.820Z,13.30
2017-11-01T11:50:20.372Z,13.30
2017-11-01T11:52:47.904Z,13.30
2017-11-01T11:55:15.444Z,13.30
2017-11-01T11:57:42.990Z,13.30
2017-11-01T12:00:10.517Z,13.30
2017-11-01T12:02:38.060Z,13.50
2017-11-01T12:05:05.595Z,13.50
2017-11-01T12:07:33.146Z,13.60
2017-11-01T12:10:01.065Z,13.90
2017-11-01T12:12:28.644Z,13.90
2017-11-01T12:14:56.194Z,13.90
2017-11-01T12:17:23.737Z,13.90
2017-11-01T12:19:51.276Z,14.00
2017-11-01T12:22:18.807Z,14.10
2017-11-01T12:24:46.362Z,14.20
2017-11-01T12:27:14.283Z,14.20
2017-11-01T12:29:41.826Z,14.20
2017-11-01T12:32:09.358Z,14.20
2017-11-01T12:34:36.927Z,14.20
2017-11-01T12:37:04.450Z,14.30
2017-11-01T12:39:31.976Z,14.20
2017-11-01T12:41:59.513Z,14.20
2017-11-01T12:44:27.044Z,14.30
2017-11-01T12:46:54.992Z,14.40
2017-11-01T12:49:22.519Z,14.40
2017-11-01T12:51:50.078Z,14.50
2017-11-01T12:54:17.632Z,14.40
2017-11-01T12:56:45.619Z,14.30
2017-11-01T12:59:13.542Z,14.40
2017-11-01T13:01:41.126Z,14.40
2017-11-01T13:04:08.672Z,14.50
2017-11-01T13:06:36.206Z,14.60
2017-11-01T13:09:04.140Z,14.70
2017-11-01T13:11:31.658Z,14.60
2017-11-01T13:13:59.193Z,14.70
2017-11-01T13:16:26.713Z,14.70
2017-11-01T13:18:54.698Z,14.80
2017-11-01T13:21:22.277Z,14.90
2017-11-01T13:23:49.800Z,14.90
2017-11-01T13:26:17.340Z,14.90
2017-11-01T13:28:44.876Z,15.00
2017-11-01T13:31:12.479Z,15.00
2017-11-01T13:33:40.011Z,15.10
2017-11-01T13:36:08.027Z,15.20
2017-11-01T13:38:35.604Z,15.20
2017-11-01T13:41:03.164Z,15.20
2017-11-01T13:43:30.692Z,15.20
2017-11-01T13:45:58.222Z,15.30
2017-11-01T13:48:25.766Z,15.20
2017-11-01T13:50:53.690Z,15.00
2017-11-01T13:53:21.226Z,15.00
2017-11-01T13:55:48.745Z,14.90
2017-11-01T13:58:16.295Z,14.90
2017-11-01T14:00:43.832Z,14.90
2017-11-01T14:03:11.390Z,14.80
2017-11-01T14:05:39.327Z,14.70
2017-11-01T14:08:06.977Z,14.60
2017-11-01T14:10:34.511Z,14.50
2017-11-01T14:13:02.039Z,14.40
2017-11-01T14:15:29.920Z,14.40
2017-11-01T14:17:57.481Z,14.30
2017-11-01T14:20:25.203Z,14.20
2017-11-01T14:22:52.840Z,14.10
2017-11-01T14:25:20.482Z,13.90
2017-11-01T14:27:48.011Z,13.90
2017-11-01T14:30:15.537Z,13.80
2017-11-01T14:32:43.087Z,13.80
2017-11-01T14:35:11.111Z,13.70
2017-11-01T14:37:38.652Z,13.70
2017-11-01T14:40:07.037Z,13.60
2017-11-01T14:42:34.582Z,13.60
2017-11-01T14:45:02.506Z,13.50
2017-11-01T14:47:30.072Z,13.50
2017-11-01T14:49:57.601Z,13.50
2017-11-01T14:52:25.260Z,13.50
2017-11-01T14:54:53.444Z,13.40
2017-11-01T14:57:20.973Z,13.40
2017-11-01T14:59:48.520Z,13.30
2017-11-01T15:02:16.446Z,13.30
2017-11-01T15:04:43.991Z,13.30
2017-11-01T15:07:11.519Z,13.20
2017-11-01T15:09:39.086Z,13.20
2017-11-01T15:12:06.609Z,13.10
2017-11-01T15:14:34.143Z,13.10
2017-11-01T15:17:01.781Z,13.00
2017-11-01T15:19:29.316Z,12.90
2017-11-01T15:21:56.869Z,12.90
2017-11-01T15:24:24.788Z,12.80
2017-11-01T15:26:52.325Z,12.80
2017-11-01T15:29:20.242Z,12.60
2017-11-01T15:31:47.807Z,12.60
2017-11-01T15:34:15.334Z,12.60
2017-11-01T15:36:43.260Z,12.40
2017-11-01T15:39:10.802Z,12.40
2017-11-01T15:41:38.355Z,12.30
2017-11-01T15:44:06.056Z,12.30
2017-11-01T15:46:33.583Z,12.20
2017-11-01T15:49:01.151Z,12.10
2017-11-01T15:51:28.708Z,12.00
2017-11-01T15:53:56.260Z,12.00
2017-11-01T15:56:23.818Z,11.90
2017-11-01T15:58:51.350Z,11.80
2017-11-01T16:01:18.902Z,11.70
2017-11-01T16:03:46.431Z,11.70
2017-11-01T16:06:13.983Z,11.60
2017-11-01T16:08:41.907Z,11.40
2017-11-01T16:11:09.482Z,11.40
2017-11-01T16:13:37.018Z,11.40
2017-11-01T16:16:04.938Z,11.20
2017-11-01T16:18:32.485Z,11.30
2017-11-01T16:21:00.033Z,11.20
2017-11-01T16:23:27.593Z,11.10
2017-11-01T16:25:55.522Z,10.90
2017-11-01T16:28:23.088Z,11.00
2017-11-01T16:30:50.621Z,10.90
2017-11-01T16:33:18.554Z,10.80
2017-11-01T16:35:46.093Z,10.80
2017-11-01T16:38:14.016Z,10.70
2017-11-01T16:40:41.548Z,10.70
2017-11-01T16:43:09.096Z,10.60
2017-11-01T16:45:36.674Z,10.60
2017-11-01T16:48:04.610Z,10.50
2017-11-01T16:50:32.150Z,10.50
2017-11-01T16:52:59.697Z,10.40
2017-11-01T16:55:27.616Z,10.30
2017-11-01T16:57:55.158Z,10.30
2017-11-01T17:00:23.082Z,10.20
2017-11-01T17:02:50.643Z,10.20
2017-11-01T17:05:18.161Z,10.10
2017-11-01T17:07:45.694Z,10.10
2017-11-01T17:10:13.234Z,10.10
2017-11-01T17:12:40.768Z,10.00
2017-11-01T17:15:08.303Z,10.00
2017-11-01T17:17:36.313Z,9.90
2017-11-01T17:20:03.865Z,9.90
2017-11-01T17:22:31.384Z,9.80
2017-11-01T17:24:59.303Z,9.70
2017-11-01T17:27:26.857Z,9.70
2017-11-01T17:29:54.410Z,9.60
2017-11-01T17:32:21.960Z,9.60
2017-11-01T17:34:49.482Z,9.60
2017-11-01T17:37:17.018Z,9.50
2017-11-01T17:39:44.953Z,9.50
2017-11-01T17:42:12.514Z,9.50
2017-11-01T17:44:40.037Z,9.50
2017-11-01T17:47:07.557Z,9.50
2017-11-01T17:49:35.089Z,9.50
2017-11-01T17:52:03.015Z,9.60
2017-11-01T17:54:30.545Z,9.60
2017-11-01T17:56:58.477Z,9.70
2017-11-01T17:59:26.009Z,9.70
2017-11-01T18:01:53.535Z,9.70
2017-11-01T18:04:21.092Z,9.70
2017-11-01T18:06:48.618Z,9.70
2017-11-01T18:09:16.528Z,9.70
2017-11-01T18:11:44.274Z,9.70
2017-11-01T18:14:12.189Z,9.80
2017-11-01T18:16:39.726Z,9.80
2017-11-01T18:19:07.255Z,9.80
2017-11-01T18:21:34.793Z,9.90
2017-11-01T18:24:02.311Z,10.00
2017-11-01T18:26:29.866Z,10.00
2017-11-01T18:28:57.397Z,10.00
2017-11-01T18:31:24.925Z,10.00
2017-11-01T18:33:52.464Z,10.00
2017-11-01T18:36:20.038Z,10.10
2017-11-01T18:38:47.590Z,10.10
2017-11-01T18:41:15.129Z,10.20
2017-11-01T18:43:43.079Z,10.20
2017-11-01T18:46:10.615Z,10.20
2017-11-01T18:48:38.184Z,10.20
2017-11-01T18:51:05.802Z,10.20
2017-11-01T18:53:33.331Z,10.20
2017-11-01T18:56:00.890Z,10.20
2017-11-01T18:58:28.441Z,10.20
2017-11-01T19:00:56.387Z,10.10
2017-11-01T19:03:23.910Z,10.20
2017-11-01T19:05:51.479Z,10.10
2017-11-01T19:08:19.017Z,10.10
2017-11-01T19:10:46.605Z,10.10
2017-11-01T19:13:14.529Z,10.10
2017-11-01T19:15:42.058Z,10.10
2017-11-01T19:18:10.004Z,10.00
2017-11-01T19:20:37.536Z,10.10
2017-11-01T19:23:05.080Z,10.00
2017-11-01T19:25:32.616Z,10.00
2017-11-01T19:28:00.169Z,10.00
2017-11-01T19:30:27.697Z,9.90
2017-11-01T19:32:55.654Z,9.90
2017-11-01T19:35:23.173Z,9.90
2017-11-01T19:37:50.697Z,9.90
2017-11-01T19:40:18.273Z,9.90
2017-11-01T19:42:45.864Z,9.90
2017-11-01T19:45:13.792Z,9.90
2017-11-01T19:47:41.315Z,9.90
2017-11-01T19:50:09.251Z,9.90
2017-11-01T19:52:36.785Z,10.00
2017-11-01T19:55:04.325Z,10.00
2017-11-01T19:57:31.856Z,9.90
2017-11-01T19:59:59.386Z,9.90
2017-11-01T20:02:27.316Z,9.90
2017-11-01T20:04:54.841Z,9.90
2017-11-01T20:07:22.402Z,9.80
2017-11-01T20:09:49.930Z,9.80
2017-11-01T20:12:17.475Z,9.80
2017-11-01T20:14:44.993Z,9.80
2017-11-01T20:17:12.558Z,9.80
2017-11-01T20:19:40.089Z,9.80
2017-11-01T20:22:07.614Z,9.80
2017-11-01T20:24:35.153Z,9.80
2017-11-01T20:27:02.682Z,9.80
2017-11-01T20:29:30.624Z,9.80
2017-11-01T20:31:58.146Z,9.80
2017-11-01T20:34:25.701Z,9.80
2017-11-01T20:36:53.230Z,9.80
2017-11-01T20:39:20.760Z,9.80
2017-11-01T20:41:48.310Z,9.80
2017-11-01T20:44:16.225Z,9.80
2017-11-01T20:46:43.777Z,9.80
2017-11-01T20:49:11.306Z,9.70
2017-11-01T20:51:39.046Z,9.80
2017-11-01T20:54:06.677Z,9.70
2017-11-01T20:56:34.598Z,9.80
2017-11-01T20:59:02.153Z,9.80
2017-11-01T21:01:29.680Z,9.80
2017-11-01T21:03:57.217Z,9.80
2017-11-01T21:06:24.732Z,9.80
2017-11-01T21:08:52.451Z,9.80
2017-11-01T21:11:20.026Z,9.80
2017-11-01T21:13:47.593Z,9.80
2017-11-01T21:16:15.122Z,9.80
2017-11-01T21:18:42.642Z,9.80
2017-11-01T21:21:10.245Z,9.80
2017-11-01T21:23:37.761Z,9.80
2017-11-01T21:26:05.322Z,9.80
2017-11-01T21:28:32.840Z,9.80
2017-11-01T21:31:00.584Z,9.80
2017-11-01T21:33:28.594Z,9.80
2017-11-01T21:35:56.146Z,9.80
2017-11-01T21:38:24.635Z,9.70
2017-11-01T21:40:52.358Z,9.70
2017-11-01T21:43:19.902Z,9.70
2017-11-01T21:45:47.424Z,9.70
2017-11-01T21:48:15.380Z,9.70
2017-11-01T21:50:43.797Z,9.80
2017-11-01T21:53:11.731Z,9.70
2017-11-01T21:55:39.280Z,9.70
2017-11-01T21:58:06.817Z,9.70
2017-11-01T22:00:34.758Z,9.60
2017-11-01T22:03:02.291Z,9.60
2017-11-01T22:05:30.226Z,9.60
2017-11-01T22:07:57.744Z,9.60
2017-11-01T22:10:25.675Z,9.50
2017-11-01T22:12:53.196Z,9.60
2017-11-01T22:15:20.716Z,9.50
2017-11-01T22:17:48.272Z,9.50
2017-11-01T22:20:15.793Z,9.50
2017-11-01T22:22:43.761Z,9.50
2017-11-01T22:25:11.290Z,9.50
2017-11-01T22:27:38.855Z,9.50
2017-11-01T22:30:06.387Z,9.50
2017-11-01T22:32:34.315Z,9.50
2017-11-01T22:35:01.853Z,9.50
2017-11-01T22:37:29.769Z,9.50
2017-11-01T22:39:57.296Z,9.50
2017-11-01T22:42:24.827Z,9.60
2017-11-01T22:44:52.373Z,9.60
2017-11-01T22:47:19.976Z,9.60
2017-11-01T22:49:47.497Z,9.70
2017-11-01T22:52:15.059Z,9.70
2017-11-01T22:54:42.970Z,9.70
2017-11-01T22:57:10.510Z,9.70
2017-11-01T22:59:38.429Z,9.80
2017-11-01T23:02:06.010Z,9.80
2017-11-01T23:04:33.535Z,9.80
2017-11-01T23:07:01.464Z,9.80
2017-11-01T23:09:28.995Z,9.80
2017-11-01T23:11:56.949Z,9.80
2017-11-01T23:14:24.529Z,9.90
2017-11-01T23:16:52.460Z,9.80
2017-11-01T23:19:20.011Z,9.80
2017-11-01T23:21:47.540Z,9.80
2017-11-01T23:24:15.083Z,9.90
2017-11-01T23:26:42.606Z,9.90
2017-11-01T23:29:10.542Z,9.90
2017-11-01T23:31:38.060Z,10.00
2017-11-01T23:34:06.025Z,9.90
2017-11-01T23:36:33.546Z,10.00
2017-11-01T23:39:01.060Z,10.00
2017-11-01T23:41:28.598Z,10.00
2017-11-01T23:43:56.113Z,10.00
2017-11-01T23:46:24.052Z,10.00
2017-11-01T23:48:51.581Z,10.00
2017-11-01T23:51:19.529Z,10.00
2017-11-01T23:53:47.058Z,10.00
2017-11-01T23:56:14.615Z,10.00
2017-11-01T23:58:42.141Z,10.00
